»·PEaware :: N1547N KRNM-KAPV

N1547N :: KRNM-KAPV

FLIGHT INFORMATION

Flight Status: Arrived
Operator: Privately registered:
United States
More flights under this callsign
Pilot: Bruno O. (13284)
Aircraft: CESSNA 172 SKYHAWK
(C172)
More flights by this aircraft type
Origin: KRNM Ramona
United States
Destination: KAPV Apple Valley
United States
More flights between these airports :: More routes between these airports
Route: +
File this flight plan on PilotEdge
Remarks:
Altitude:
(Current/Filed)
6,500ft
Speed:
(Current/Filed)
0kts
Departed: 22-Sep-20 02:11 PM
Arrived: 22-Sep-20 03:06 PM
Distance/Time
Traveled:
93nm/0:55
Distance/Time
To Go:
Arrived

Flight Plot

Page will automatically refresh every two minutes.

Flight plan parsing failed; only flown route is shown


Map Options




Map Legend


Flown Route
Filed Route
Departure Airport
Arrival Airport
Navaid (VOR, NDB)
Fix

Horizontal Profiles

Position Reports

Time Latitude Longitude Heading Altitude Ground
Speed
22-Sep-20 14:07 33.040581 -116.914161 96 1394ft 1kts
22-Sep-20 14:08 33.039463 -116.912484 99 1395ft 14kts
22-Sep-20 14:09 33.038560 -116.907244 164 1399ft 7kts
22-Sep-20 14:10 33.039419 -116.917144 278 1468ft 71kts
22-Sep-20 14:11 33.053933 -116.932062 345 2032ft 86kts
22-Sep-20 14:12 33.078478 -116.939927 343 2744ft 84kts
22-Sep-20 14:13 33.098830 -116.946672 343 3481ft 74kts
22-Sep-20 14:14 33.122888 -116.954750 343 3948ft 100kts
22-Sep-20 14:15 33.148121 -116.962629 344 4597ft 84kts
22-Sep-20 14:16 33.168630 -116.968541 343 5187ft 75kts
22-Sep-20 14:17 33.190870 -116.975068 344 5565ft 88kts
22-Sep-20 14:18 33.214184 -116.982114 343 6065ft 85kts
22-Sep-20 14:19 33.237863 -116.989317 343 6475ft 97kts
22-Sep-20 14:20 33.266571 -116.998336 343 6497ft 106kts
22-Sep-20 14:21 33.295209 -117.007323 343 6502ft 106kts
22-Sep-20 14:22 33.323639 -117.016239 343 6499ft 105kts
22-Sep-20 14:23 33.351449 -117.026232 339 6508ft 105kts
22-Sep-20 14:24 33.379654 -117.037762 339 6495ft 106kts
22-Sep-20 14:25 33.407918 -117.049315 339 6501ft 108kts
22-Sep-20 14:26 33.435606 -117.061992 334 6501ft 105kts
22-Sep-20 14:27 33.462569 -117.076376 334 6502ft 106kts
22-Sep-20 14:28 33.489660 -117.090829 334 6500ft 106kts
22-Sep-20 14:29 33.516767 -117.105371 334 6501ft 106kts
22-Sep-20 14:30 33.544067 -117.119281 350 6527ft 106kts
22-Sep-20 14:31 33.573688 -117.123081 352 6530ft 108kts
22-Sep-20 14:32 33.603537 -117.126803 352 6531ft 107kts
22-Sep-20 14:33 33.633373 -117.130591 352 6532ft 107kts
22-Sep-20 14:34 33.663099 -117.134391 352 6533ft 107kts
22-Sep-20 14:35 33.692877 -117.138186 353 6536ft 107kts
22-Sep-20 14:36 33.722932 -117.139020 357 6534ft 107kts
22-Sep-20 14:37 33.752958 -117.139624 357 6535ft 108kts
22-Sep-20 14:38 33.783115 -117.140272 357 6540ft 108kts
22-Sep-20 14:39 33.813578 -117.140928 357 6535ft 108kts
22-Sep-20 14:40 33.843539 -117.141589 357 6537ft 107kts
22-Sep-20 14:41 33.873495 -117.142200 357 6542ft 107kts
22-Sep-20 14:42 33.903447 -117.142802 357 6541ft 107kts
22-Sep-20 14:43 33.933613 -117.143368 357 6538ft 108kts
22-Sep-20 14:44 33.963616 -117.144056 357 6543ft 107kts
22-Sep-20 14:45 33.993596 -117.144810 357 6542ft 107kts
22-Sep-20 14:46 34.023520 -117.146781 355 6543ft 108kts
22-Sep-20 14:47 34.052197 -117.148817 355 6903ft 97kts
22-Sep-20 14:48 34.078559 -117.150695 355 7403ft 92kts
22-Sep-20 14:49 34.103631 -117.152484 356 7904ft 87kts
22-Sep-20 14:50 34.127765 -117.154212 356 8346ft 88kts
22-Sep-20 14:51 34.154216 -117.156103 356 8550ft 104kts
22-Sep-20 14:52 34.183716 -117.158230 356 8556ft 107kts
22-Sep-20 14:53 34.213737 -117.160385 356 8556ft 108kts
22-Sep-20 14:54 34.243722 -117.162534 356 8559ft 108kts
22-Sep-20 14:55 34.273517 -117.164678 356 8555ft 106kts
22-Sep-20 14:56 34.303287 -117.166817 355 8485ft 113kts
22-Sep-20 14:57 34.338699 -117.169368 355 7487ft 130kts
22-Sep-20 14:58 34.375036 -117.171990 355 6490ft 132kts
22-Sep-20 14:59 34.411682 -117.174632 355 5486ft 131kts
22-Sep-20 15:00 34.447084 -117.177191 355 4815ft 123kts
22-Sep-20 15:01 34.481223 -117.179655 355 4319ft 124kts
22-Sep-20 15:02 34.514634 -117.183615 339 4041ft 111kts
22-Sep-20 15:03 34.544389 -117.197089 357 3794ft 114kts
22-Sep-20 15:04 34.570720 -117.188447 16 3024ft 83kts
22-Sep-20 15:05 34.579079 -117.186842 204 3012ft 10kts
22-Sep-20 15:06 34.575338 -117.188181 195 2984ft 14kts
22-Sep-20 15:07 34.574167 -117.189192 258 2977ft 0kts

Navigation Log

Ident Type
Flight plan parsing failed, navigation log unavailable